sensor_id;sensor_type;location;lat;lon;timestamp;P1;durP1;ratioP1;P2;durP2;ratioP2
20306;SDS011;10312;52.434;13.206;2023-07-20T00:01:52;4.57;;;2.95;;
20306;SDS011;10312;52.434;13.206;2023-07-20T00:04:19;3.10;;;2.78;;
20306;SDS011;10312;52.434;13.206;2023-07-20T00:06:46;4.95;;;3.28;;
20306;SDS011;10312;52.434;13.206;2023-07-20T00:09:13;4.38;;;2.88;;
20306;SDS011;10312;52.434;13.206;2023-07-20T00:11:47;4.50;;;3.15;;
20306;SDS011;10312;52.434;13.206;2023-07-20T00:14:17;3.97;;;3.13;;
20306;SDS011;10312;52.434;13.206;2023-07-20T00:16:45;3.53;;;3.10;;
20306;SDS011;10312;52.434;13.206;2023-07-20T00:19:23;4.10;;;2.85;;
20306;SDS011;10312;52.434;13.206;2023-07-20T00:21:53;4.97;;;2.80;;
20306;SDS011;10312;52.434;13.206;2023-07-20T00:24:21;8.77;;;3.45;;
20306;SDS011;10312;52.434;13.206;2023-07-20T00:26:48;4.70;;;3.25;;
20306;SDS011;10312;52.434;13.206;2023-07-20T00:29:15;5.00;;;3.17;;
20306;SDS011;10312;52.434;13.206;2023-07-20T00:31:42;4.40;;;3.10;;
20306;SDS011;10312;52.434;13.206;2023-07-20T00:34:10;4.15;;;3.40;;
20306;SDS011;10312;52.434;13.206;2023-07-20T00:36:39;7.30;;;3.17;;
20306;SDS011;10312;52.434;13.206;2023-07-20T00:39:06;4.25;;;3.20;;
20306;SDS011;10312;52.434;13.206;2023-07-20T00:41:33;5.00;;;3.50;;
20306;SDS011;10312;52.434;13.206;2023-07-20T00:44:01;5.88;;;3.65;;
20306;SDS011;10312;52.434;13.206;2023-07-20T00:46:28;4.35;;;3.90;;
20306;SDS011;10312;52.434;13.206;2023-07-20T00:48:55;4.25;;;3.65;;
20306;SDS011;10312;52.434;13.206;2023-07-20T00:51:23;4.88;;;3.65;;
20306;SDS011;10312;52.434;13.206;2023-07-20T00:53:52;5.43;;;4.18;;
20306;SDS011;10312;52.434;13.206;2023-07-20T00:56:20;5.28;;;3.95;;
20306;SDS011;10312;52.434;13.206;2023-07-20T00:58:47;6.60;;;3.97;;
20306;SDS011;10312;52.434;13.206;2023-07-20T01:01:14;7.97;;;3.97;;
20306;SDS011;10312;52.434;13.206;2023-07-20T01:03:41;7.20;;;4.63;;
20306;SDS011;10312;52.434;13.206;2023-07-20T01:06:10;4.95;;;4.05;;
20306;SDS011;10312;52.434;13.206;2023-07-20T01:08:57;6.40;;;4.63;;
20306;SDS011;10312;52.434;13.206;2023-07-20T01:14:24;5.50;;;4.25;;
20306;SDS011;10312;52.434;13.206;2023-07-20T01:16:51;6.25;;;4.65;;
20306;SDS011;10312;52.434;13.206;2023-07-20T01:19:19;8.02;;;5.28;;
20306;SDS011;10312;52.434;13.206;2023-07-20T01:21:57;6.60;;;5.20;;
20306;SDS011;10312;52.434;13.206;2023-07-20T01:24:32;5.03;;;4.05;;
20306;SDS011;10312;52.434;13.206;2023-07-20T01:29:43;7.43;;;4.60;;
20306;SDS011;10312;52.434;13.206;2023-07-20T01:32:35;5.95;;;4.40;;
20306;SDS011;10312;52.434;13.206;2023-07-20T01:35:03;6.72;;;3.65;;
20306;SDS011;10312;52.434;13.206;2023-07-20T01:37:33;5.00;;;3.97;;
20306;SDS011;10312;52.434;13.206;2023-07-20T01:40:00;5.55;;;3.88;;
20306;SDS011;10312;52.434;13.206;2023-07-20T01:42:27;5.00;;;3.95;;
20306;SDS011;10312;52.434;13.206;2023-07-20T01:44:54;5.55;;;3.67;;
20306;SDS011;10312;52.434;13.206;2023-07-20T01:47:23;9.15;;;3.90;;
20306;SDS011;10312;52.434;13.206;2023-07-20T01:49:50;7.45;;;4.75;;
20306;SDS011;10312;52.434;13.206;2023-07-20T01:52:17;4.72;;;3.88;;
20306;SDS011;10312;52.434;13.206;2023-07-20T01:54:43;4.43;;;3.88;;
20306;SDS011;10312;52.434;13.206;2023-07-20T01:57:10;5.63;;;3.72;;
20306;SDS011;10312;52.434;13.206;2023-07-20T01:59:37;6.63;;;3.70;;
20306;SDS011;10312;52.434;13.206;2023-07-20T02:02:04;5.20;;;3.45;;
20306;SDS011;10312;52.434;13.206;2023-07-20T02:04:31;5.13;;;3.67;;
20306;SDS011;10312;52.434;13.206;2023-07-20T02:06:57;4.63;;;4.00;;
20306;SDS011;10312;52.434;13.206;2023-07-20T02:09:24;5.93;;;4.30;;
20306;SDS011;10312;52.434;13.206;2023-07-20T02:11:52;5.50;;;4.10;;
20306;SDS011;10312;52.434;13.206;2023-07-20T02:14:19;8.15;;;4.30;;
20306;SDS011;10312;52.434;13.206;2023-07-20T02:16:46;6.20;;;4.38;;
20306;SDS011;10312;52.434;13.206;2023-07-20T02:19:14;4.68;;;4.18;;
20306;SDS011;10312;52.434;13.206;2023-07-20T02:21:41;4.38;;;3.90;;
20306;SDS011;10312;52.434;13.206;2023-07-20T02:24:08;7.45;;;4.47;;
20306;SDS011;10312;52.434;13.206;2023-07-20T02:26:35;5.63;;;4.22;;
20306;SDS011;10312;52.434;13.206;2023-07-20T02:29:01;6.43;;;4.57;;
20306;SDS011;10312;52.434;13.206;2023-07-20T02:31:31;6.75;;;3.80;;
20306;SDS011;10312;52.434;13.206;2023-07-20T02:33:58;5.65;;;4.57;;
20306;SDS011;10312;52.434;13.206;2023-07-20T02:36:24;4.93;;;4.30;;
20306;SDS011;10312;52.434;13.206;2023-07-20T02:38:51;4.65;;;3.72;;
20306;SDS011;10312;52.434;13.206;2023-07-20T02:41:18;6.80;;;4.40;;
20306;SDS011;10312;52.434;13.206;2023-07-20T02:43:45;6.25;;;4.75;;
20306;SDS011;10312;52.434;13.206;2023-07-20T02:46:12;5.50;;;4.50;;
20306;SDS011;10312;52.434;13.206;2023-07-20T02:48:38;4.90;;;4.40;;
20306;SDS011;10312;52.434;13.206;2023-07-20T02:51:05;8.27;;;5.40;;
20306;SDS011;10312;52.434;13.206;2023-07-20T02:53:33;6.10;;;5.15;;
20306;SDS011;10312;52.434;13.206;2023-07-20T02:56:00;8.52;;;5.60;;
20306;SDS011;10312;52.434;13.206;2023-07-20T02:58:27;8.00;;;5.60;;
20306;SDS011;10312;52.434;13.206;2023-07-20T03:00:54;7.30;;;6.25;;
20306;SDS011;10312;52.434;13.206;2023-07-20T03:03:21;6.70;;;6.00;;
20306;SDS011;10312;52.434;13.206;2023-07-20T03:05:48;7.97;;;6.53;;
20306;SDS011;10312;52.434;13.206;2023-07-20T03:08:21;9.57;;;7.40;;
20306;SDS011;10312;52.434;13.206;2023-07-20T03:10:48;9.38;;;6.45;;
20306;SDS011;10312;52.434;13.206;2023-07-20T03:13:15;8.57;;;7.28;;
20306;SDS011;10312;52.434;13.206;2023-07-20T03:15:43;10.70;;;7.30;;
20306;SDS011;10312;52.434;13.206;2023-07-20T03:18:10;11.98;;;7.28;;
20306;SDS011;10312;52.434;13.206;2023-07-20T03:20:37;8.85;;;7.43;;
20306;SDS011;10312;52.434;13.206;2023-07-20T03:23:04;11.00;;;7.97;;
20306;SDS011;10312;52.434;13.206;2023-07-20T03:25:31;10.13;;;7.35;;
20306;SDS011;10312;52.434;13.206;2023-07-20T03:27:58;9.68;;;6.95;;
20306;SDS011;10312;52.434;13.206;2023-07-20T03:30:25;9.70;;;7.07;;
20306;SDS011;10312;52.434;13.206;2023-07-20T03:32:52;9.05;;;7.07;;
20306;SDS011;10312;52.434;13.206;2023-07-20T03:35:19;8.65;;;7.75;;
20306;SDS011;10312;52.434;13.206;2023-07-20T03:37:46;11.82;;;8.40;;
20306;SDS011;10312;52.434;13.206;2023-07-20T03:40:13;9.18;;;7.13;;
20306;SDS011;10312;52.434;13.206;2023-07-20T03:42:41;10.73;;;7.53;;
20306;SDS011;10312;52.434;13.206;2023-07-20T03:45:08;9.55;;;7.30;;
20306;SDS011;10312;52.434;13.206;2023-07-20T03:47:35;8.50;;;7.03;;
20306;SDS011;10312;52.434;13.206;2023-07-20T03:50:01;8.75;;;7.15;;
20306;SDS011;10312;52.434;13.206;2023-07-20T03:52:29;12.32;;;7.35;;
20306;SDS011;10312;52.434;13.206;2023-07-20T03:54:56;10.10;;;7.93;;
20306;SDS011;10312;52.434;13.206;2023-07-20T03:57:23;9.95;;;8.13;;
20306;SDS011;10312;52.434;13.206;2023-07-20T03:59:50;8.43;;;7.20;;
20306;SDS011;10312;52.434;13.206;2023-07-20T04:02:17;10.02;;;8.45;;
20306;SDS011;10312;52.434;13.206;2023-07-20T04:04:44;11.70;;;8.07;;
20306;SDS011;10312;52.434;13.206;2023-07-20T04:07:11;13.40;;;8.57;;
20306;SDS011;10312;52.434;13.206;2023-07-20T04:09:41;11.30;;;8.02;;
20306;SDS011;10312;52.434;13.206;2023-07-20T04:12:08;11.32;;;9.18;;
20306;SDS011;10312;52.434;13.206;2023-07-20T04:14:35;12.30;;;8.32;;
20306;SDS011;10312;52.434;13.206;2023-07-20T04:17:01;11.02;;;8.50;;
20306;SDS011;10312;52.434;13.206;2023-07-20T04:19:29;12.48;;;8.50;;
20306;SDS011;10312;52.434;13.206;2023-07-20T04:21:56;9.80;;;8.00;;
20306;SDS011;10312;52.434;13.206;2023-07-20T04:24:23;10.13;;;7.68;;
20306;SDS011;10312;52.434;13.206;2023-07-20T04:26:50;10.25;;;8.52;;
20306;SDS011;10312;52.434;13.206;2023-07-20T04:29:17;10.57;;;8.32;;
20306;SDS011;10312;52.434;13.206;2023-07-20T04:31:44;12.95;;;7.97;;
20306;SDS011;10312;52.434;13.206;2023-07-20T04:34:11;10.88;;;7.68;;
20306;SDS011;10312;52.434;13.206;2023-07-20T04:36:38;10.57;;;8.25;;
20306;SDS011;10312;52.434;13.206;2023-07-20T04:39:05;9.65;;;8.13;;
20306;SDS011;10312;52.434;13.206;2023-07-20T04:41:54;9.50;;;7.97;;
20306;SDS011;10312;52.434;13.206;2023-07-20T04:44:21;8.13;;;7.30;;
20306;SDS011;10312;52.434;13.206;2023-07-20T04:46:48;14.38;;;7.85;;
20306;SDS011;10312;52.434;13.206;2023-07-20T04:49:15;8.65;;;7.57;;
20306;SDS011;10312;52.434;13.206;2023-07-20T04:51:44;10.93;;;7.97;;
20306;SDS011;10312;52.434;13.206;2023-07-20T04:54:11;12.32;;;7.72;;
20306;SDS011;10312;52.434;13.206;2023-07-20T04:56:40;9.60;;;7.80;;
20306;SDS011;10312;52.434;13.206;2023-07-20T04:59:09;12.38;;;8.82;;
20306;SDS011;10312;52.434;13.206;2023-07-20T05:01:36;15.07;;;8.80;;
20306;SDS011;10312;52.434;13.206;2023-07-20T05:04:03;9.63;;;7.70;;
20306;SDS011;10312;52.434;13.206;2023-07-20T05:06:30;10.25;;;7.57;;
20306;SDS011;10312;52.434;13.206;2023-07-20T05:08:59;8.80;;;7.15;;
20306;SDS011;10312;52.434;13.206;2023-07-20T05:11:26;9.57;;;7.60;;
20306;SDS011;10312;52.434;13.206;2023-07-20T05:13:53;8.93;;;7.97;;
20306;SDS011;10312;52.434;13.206;2023-07-20T05:16:20;9.30;;;8.13;;
20306;SDS011;10312;52.434;13.206;2023-07-20T05:18:47;9.35;;;7.65;;
20306;SDS011;10312;52.434;13.206;2023-07-20T05:21:14;10.95;;;8.05;;
20306;SDS011;10312;52.434;13.206;2023-07-20T05:23:41;11.88;;;7.97;;
20306;SDS011;10312;52.434;13.206;2023-07-20T05:26:08;10.15;;;7.32;;
20306;SDS011;10312;52.434;13.206;2023-07-20T05:28:35;9.05;;;7.20;;
20306;SDS011;10312;52.434;13.206;2023-07-20T05:31:02;8.55;;;7.55;;
20306;SDS011;10312;52.434;13.206;2023-07-20T05:33:29;11.70;;;8.23;;
20306;SDS011;10312;52.434;13.206;2023-07-20T05:35:56;10.60;;;7.30;;
20306;SDS011;10312;52.434;13.206;2023-07-20T05:38:23;10.38;;;7.38;;
20306;SDS011;10312;52.434;13.206;2023-07-20T05:40:50;9.52;;;8.02;;
20306;SDS011;10312;52.434;13.206;2023-07-20T05:43:17;13.00;;;7.65;;
20306;SDS011;10312;52.434;13.206;2023-07-20T05:45:44;10.43;;;7.90;;
20306;SDS011;10312;52.434;13.206;2023-07-20T05:48:11;9.73;;;7.63;;
20306;SDS011;10312;52.434;13.206;2023-07-20T05:50:43;8.80;;;7.35;;
20306;SDS011;10312;52.434;13.206;2023-07-20T05:53:12;8.70;;;7.70;;
20306;SDS011;10312;52.434;13.206;2023-07-20T05:55:39;10.00;;;7.20;;
20306;SDS011;10312;52.434;13.206;2023-07-20T05:58:06;10.23;;;7.20;;
20306;SDS011;10312;52.434;13.206;2023-07-20T06:00:33;11.05;;;6.93;;
20306;SDS011;10312;52.434;13.206;2023-07-20T06:03:00;7.30;;;6.45;;
20306;SDS011;10312;52.434;13.206;2023-07-20T06:05:27;8.60;;;7.22;;
20306;SDS011;10312;52.434;13.206;2023-07-20T06:07:55;8.48;;;6.65;;
20306;SDS011;10312;52.434;13.206;2023-07-20T06:10:21;8.20;;;6.95;;
20306;SDS011;10312;52.434;13.206;2023-07-20T06:12:48;10.02;;;7.00;;
20306;SDS011;10312;52.434;13.206;2023-07-20T06:15:30;8.07;;;6.43;;
20306;SDS011;10312;52.434;13.206;2023-07-20T06:18:04;9.00;;;6.53;;
20306;SDS011;10312;52.434;13.206;2023-07-20T06:20:31;8.27;;;6.85;;
20306;SDS011;10312;52.434;13.206;2023-07-20T06:22:58;10.05;;;6.38;;
20306;SDS011;10312;52.434;13.206;2023-07-20T06:25:25;8.90;;;6.65;;
20306;SDS011;10312;52.434;13.206;2023-07-20T06:27:54;9.82;;;5.20;;
20306;SDS011;10312;52.434;13.206;2023-07-20T06:30:22;6.43;;;4.72;;
20306;SDS011;10312;52.434;13.206;2023-07-20T06:32:48;6.88;;;5.10;;
20306;SDS011;10312;52.434;13.206;2023-07-20T06:35:16;5.07;;;4.45;;
20306;SDS011;10312;52.434;13.206;2023-07-20T06:37:43;6.88;;;3.70;;
20306;SDS011;10312;52.434;13.206;2023-07-20T06:40:10;5.45;;;3.53;;
20306;SDS011;10312;52.434;13.206;2023-07-20T06:42:43;4.18;;;3.15;;
20306;SDS011;10312;52.434;13.206;2023-07-20T06:45:13;3.83;;;2.35;;
20306;SDS011;10312;52.434;13.206;2023-07-20T06:47:40;3.92;;;2.70;;
20306;SDS011;10312;52.434;13.206;2023-07-20T06:50:07;3.92;;;2.67;;
20306;SDS011;10312;52.434;13.206;2023-07-20T06:52:34;6.72;;;2.17;;
20306;SDS011;10312;52.434;13.206;2023-07-20T06:55:01;2.60;;;1.90;;
20306;SDS011;10312;52.434;13.206;2023-07-20T06:57:31;2.92;;;1.90;;
20306;SDS011;10312;52.434;13.206;2023-07-20T06:59:58;2.15;;;1.52;;
20306;SDS011;10312;52.434;13.206;2023-07-20T07:02:25;4.43;;;2.10;;
20306;SDS011;10312;52.434;13.206;2023-07-20T07:04:52;3.83;;;1.60;;
20306;SDS011;10312;52.434;13.206;2023-07-20T07:07:26;1.92;;;1.30;;
20306;SDS011;10312;52.434;13.206;2023-07-20T07:09:53;2.35;;;1.50;;
20306;SDS011;10312;52.434;13.206;2023-07-20T07:12:20;3.70;;;1.75;;
20306;SDS011;10312;52.434;13.206;2023-07-20T07:14:46;2.40;;;1.40;;
20306;SDS011;10312;52.434;13.206;2023-07-20T07:17:14;1.90;;;1.25;;
20306;SDS011;10312;52.434;13.206;2023-07-20T07:19:45;4.40;;;1.20;;
20306;SDS011;10312;52.434;13.206;2023-07-20T07:22:14;2.28;;;0.80;;
20306;SDS011;10312;52.434;13.206;2023-07-20T07:24:41;1.92;;;0.90;;
20306;SDS011;10312;52.434;13.206;2023-07-20T07:27:09;1.55;;;0.63;;
20306;SDS011;10312;52.434;13.206;2023-07-20T07:29:35;0.82;;;0.50;;
20306;SDS011;10312;52.434;13.206;2023-07-20T07:32:02;1.75;;;0.70;;
20306;SDS011;10312;52.434;13.206;2023-07-20T07:34:29;1.92;;;0.68;;
20306;SDS011;10312;52.434;13.206;2023-07-20T07:36:58;1.58;;;0.50;;
20306;SDS011;10312;52.434;13.206;2023-07-20T07:39:25;1.23;;;0.52;;
20306;SDS011;10312;52.434;13.206;2023-07-20T07:42:00;2.42;;;0.93;;
20306;SDS011;10312;52.434;13.206;2023-07-20T07:44:27;0.60;;;0.40;;
20306;SDS011;10312;52.434;13.206;2023-07-20T07:46:54;0.98;;;0.40;;
20306;SDS011;10312;52.434;13.206;2023-07-20T07:49:21;2.55;;;0.60;;
20306;SDS011;10312;52.434;13.206;2023-07-20T07:51:48;1.10;;;0.50;;
20306;SDS011;10312;52.434;13.206;2023-07-20T07:54:15;0.70;;;0.40;;
20306;SDS011;10312;52.434;13.206;2023-07-20T07:56:41;1.75;;;0.63;;
20306;SDS011;10312;52.434;13.206;2023-07-20T07:59:09;1.73;;;0.38;;
20306;SDS011;10312;52.434;13.206;2023-07-20T08:01:35;1.88;;;0.70;;
20306;SDS011;10312;52.434;13.206;2023-07-20T08:04:03;0.98;;;0.30;;
20306;SDS011;10312;52.434;13.206;2023-07-20T08:06:30;0.98;;;0.60;;
20306;SDS011;10312;52.434;13.206;2023-07-20T08:08:57;1.35;;;0.50;;
20306;SDS011;10312;52.434;13.206;2023-07-20T08:11:24;0.85;;;0.50;;
20306;SDS011;10312;52.434;13.206;2023-07-20T08:13:51;1.33;;;0.45;;
20306;SDS011;10312;52.434;13.206;2023-07-20T08:16:18;0.65;;;0.50;;
20306;SDS011;10312;52.434;13.206;2023-07-20T08:18:45;0.75;;;0.50;;
20306;SDS011;10312;52.434;13.206;2023-07-20T08:21:13;0.57;;;0.40;;
20306;SDS011;10312;52.434;13.206;2023-07-20T08:23:39;1.10;;;0.50;;
20306;SDS011;10312;52.434;13.206;2023-07-20T08:26:06;2.03;;;0.65;;
20306;SDS011;10312;52.434;13.206;2023-07-20T08:28:33;1.17;;;0.50;;
20306;SDS011;10312;52.434;13.206;2023-07-20T08:31:00;0.50;;;0.40;;
20306;SDS011;10312;52.434;13.206;2023-07-20T08:33:27;0.70;;;0.40;;
20306;SDS011;10312;52.434;13.206;2023-07-20T08:35:56;0.90;;;0.50;;
20306;SDS011;10312;52.434;13.206;2023-07-20T08:38:23;2.15;;;0.68;;
20306;SDS011;10312;52.434;13.206;2023-07-20T08:40:51;0.80;;;0.50;;
20306;SDS011;10312;52.434;13.206;2023-07-20T08:43:20;1.65;;;0.50;;
20306;SDS011;10312;52.434;13.206;2023-07-20T08:45:48;1.05;;;0.65;;
20306;SDS011;10312;52.434;13.206;2023-07-20T08:48:15;1.77;;;0.50;;
20306;SDS011;10312;52.434;13.206;2023-07-20T08:50:42;1.02;;;0.52;;
20306;SDS011;10312;52.434;13.206;2023-07-20T08:53:09;2.60;;;0.68;;
20306;SDS011;10312;52.434;13.206;2023-07-20T08:55:37;3.00;;;0.40;;
20306;SDS011;10312;52.434;13.206;2023-07-20T08:58:04;0.85;;;0.40;;
20306;SDS011;10312;52.434;13.206;2023-07-20T09:00:34;2.13;;;0.40;;
20306;SDS011;10312;52.434;13.206;2023-07-20T09:03:02;0.95;;;0.30;;
20306;SDS011;10312;52.434;13.206;2023-07-20T09:05:29;0.40;;;0.20;;
20306;SDS011;10312;52.434;13.206;2023-07-20T09:08:01;0.40;;;0.30;;
20306;SDS011;10312;52.434;13.206;2023-07-20T09:10:32;0.63;;;0.22;;
20306;SDS011;10312;52.434;13.206;2023-07-20T09:12:58;1.23;;;0.30;;
20306;SDS011;10312;52.434;13.206;2023-07-20T09:15:25;0.60;;;0.30;;
20306;SDS011;10312;52.434;13.206;2023-07-20T09:17:52;0.20;;;0.20;;
20306;SDS011;10312;52.434;13.206;2023-07-20T09:20:22;0.38;;;0.30;;
20306;SDS011;10312;52.434;13.206;2023-07-20T09:22:50;0.52;;;0.40;;
20306;SDS011;10312;52.434;13.206;2023-07-20T09:25:19;0.80;;;0.30;;
20306;SDS011;10312;52.434;13.206;2023-07-20T09:27:52;0.60;;;0.40;;
20306;SDS011;10312;52.434;13.206;2023-07-20T09:30:21;1.08;;;0.40;;
20306;SDS011;10312;52.434;13.206;2023-07-20T09:32:57;0.85;;;0.40;;
20306;SDS011;10312;52.434;13.206;2023-07-20T09:35:25;1.13;;;0.40;;
20306;SDS011;10312;52.434;13.206;2023-07-20T09:38:06;1.60;;;0.50;;
20306;SDS011;10312;52.434;13.206;2023-07-20T09:40:38;0.50;;;0.30;;
20306;SDS011;10312;52.434;13.206;2023-07-20T09:43:09;2.08;;;0.47;;
20306;SDS011;10312;52.434;13.206;2023-07-20T09:45:39;1.35;;;0.60;;
20306;SDS011;10312;52.434;13.206;2023-07-20T09:48:11;0.45;;;0.30;;
20306;SDS011;10312;52.434;13.206;2023-07-20T09:50:50;0.60;;;0.40;;
20306;SDS011;10312;52.434;13.206;2023-07-20T09:53:18;1.77;;;0.30;;
20306;SDS011;10312;52.434;13.206;2023-07-20T09:55:45;1.25;;;0.30;;
20306;SDS011;10312;52.434;13.206;2023-07-20T09:58:16;0.98;;;0.38;;
20306;SDS011;10312;52.434;13.206;2023-07-20T10:00:43;2.03;;;0.50;;
20306;SDS011;10312;52.434;13.206;2023-07-20T10:03:18;1.15;;;0.30;;
20306;SDS011;10312;52.434;13.206;2023-07-20T10:05:54;1.13;;;0.40;;
20306;SDS011;10312;52.434;13.206;2023-07-20T10:08:24;1.70;;;0.60;;
20306;SDS011;10312;52.434;13.206;2023-07-20T10:10:54;1.08;;;0.73;;
20306;SDS011;10312;52.434;13.206;2023-07-20T10:13:27;2.50;;;0.47;;
20306;SDS011;10312;52.434;13.206;2023-07-20T10:16:00;0.50;;;0.30;;
20306;SDS011;10312;52.434;13.206;2023-07-20T10:21:01;0.90;;;0.40;;
20306;SDS011;10312;52.434;13.206;2023-07-20T10:23:32;2.85;;;0.40;;
20306;SDS011;10312;52.434;13.206;2023-07-20T10:25:59;1.08;;;0.50;;
20306;SDS011;10312;52.434;13.206;2023-07-20T10:28:27;0.80;;;0.40;;
20306;SDS011;10312;52.434;13.206;2023-07-20T10:30:54;0.90;;;0.30;;
20306;SDS011;10312;52.434;13.206;2023-07-20T10:33:21;1.77;;;0.40;;
20306;SDS011;10312;52.434;13.206;2023-07-20T10:35:52;2.33;;;0.68;;
20306;SDS011;10312;52.434;13.206;2023-07-20T10:38:20;3.33;;;0.32;;
20306;SDS011;10312;52.434;13.206;2023-07-20T10:41:04;0.25;;;0.22;;
20306;SDS011;10312;52.434;13.206;2023-07-20T10:43:31;1.08;;;0.40;;
20306;SDS011;10312;52.434;13.206;2023-07-20T10:45:57;1.48;;;0.40;;
20306;SDS011;10312;52.434;13.206;2023-07-20T10:48:24;1.45;;;0.40;;
20306;SDS011;10312;52.434;13.206;2023-07-20T10:53:41;0.98;;;0.30;;
20306;SDS011;10312;52.434;13.206;2023-07-20T10:56:12;0.88;;;0.30;;
20306;SDS011;10312;52.434;13.206;2023-07-20T10:58:40;0.50;;;0.30;;
20306;SDS011;10312;52.434;13.206;2023-07-20T11:01:09;0.77;;;0.30;;
20306;SDS011;10312;52.434;13.206;2023-07-20T11:03:42;2.25;;;0.30;;
20306;SDS011;10312;52.434;13.206;2023-07-20T11:11:43;2.10;;;0.40;;
20306;SDS011;10312;52.434;13.206;2023-07-20T11:14:20;0.68;;;0.40;;
20306;SDS011;10312;52.434;13.206;2023-07-20T11:16:52;1.20;;;0.35;;
20306;SDS011;10312;52.434;13.206;2023-07-20T11:19:22;0.40;;;0.30;;
20306;SDS011;10312;52.434;13.206;2023-07-20T11:21:57;0.75;;;0.35;;
20306;SDS011;10312;52.434;13.206;2023-07-20T11:24:29;0.77;;;0.30;;
20306;SDS011;10312;52.434;13.206;2023-07-20T11:26:57;2.08;;;0.40;;
20306;SDS011;10312;52.434;13.206;2023-07-20T11:29:24;1.35;;;0.45;;
20306;SDS011;10312;52.434;13.206;2023-07-20T11:31:58;1.77;;;0.50;;
20306;SDS011;10312;52.434;13.206;2023-07-20T11:34:26;0.90;;;0.40;;
20306;SDS011;10312;52.434;13.206;2023-07-20T11:36:53;0.45;;;0.35;;
20306;SDS011;10312;52.434;13.206;2023-07-20T11:39:24;0.60;;;0.40;;
20306;SDS011;10312;52.434;13.206;2023-07-20T11:41:53;1.40;;;0.40;;
20306;SDS011;10312;52.434;13.206;2023-07-20T11:44:23;0.85;;;0.40;;
20306;SDS011;10312;52.434;13.206;2023-07-20T11:49:34;3.08;;;0.43;;
20306;SDS011;10312;52.434;13.206;2023-07-20T11:52:02;0.57;;;0.20;;
20306;SDS011;10312;52.434;13.206;2023-07-20T11:54:30;1.90;;;0.50;;
20306;SDS011;10312;52.434;13.206;2023-07-20T11:57:00;2.25;;;0.45;;
20306;SDS011;10312;52.434;13.206;2023-07-20T11:59:27;2.75;;;0.30;;
20306;SDS011;10312;52.434;13.206;2023-07-20T12:01:54;1.33;;;0.30;;
20306;SDS011;10312;52.434;13.206;2023-07-20T12:04:22;2.70;;;0.35;;
20306;SDS011;10312;52.434;13.206;2023-07-20T12:06:50;1.00;;;0.30;;
20306;SDS011;10312;52.434;13.206;2023-07-20T12:09:19;0.65;;;0.20;;
20306;SDS011;10312;52.434;13.206;2023-07-20T12:11:48;0.47;;;0.25;;
20306;SDS011;10312;52.434;13.206;2023-07-20T12:14:16;2.10;;;0.28;;
20306;SDS011;10312;52.434;13.206;2023-07-20T12:16:43;4.00;;;0.35;;
20306;SDS011;10312;52.434;13.206;2023-07-20T12:19:12;1.15;;;0.30;;
20306;SDS011;10312;52.434;13.206;2023-07-20T12:21:40;0.30;;;0.20;;
20306;SDS011;10312;52.434;13.206;2023-07-20T12:24:09;1.25;;;0.35;;
20306;SDS011;10312;52.434;13.206;2023-07-20T12:26:37;1.08;;;0.30;;
20306;SDS011;10312;52.434;13.206;2023-07-20T12:29:04;0.82;;;0.40;;
20306;SDS011;10312;52.434;13.206;2023-07-20T12:31:33;1.20;;;0.30;;
20306;SDS011;10312;52.434;13.206;2023-07-20T12:34:02;0.43;;;0.30;;
20306;SDS011;10312;52.434;13.206;2023-07-20T12:36:28;2.63;;;0.38;;
20306;SDS011;10312;52.434;13.206;2023-07-20T12:38:55;0.60;;;0.20;;
20306;SDS011;10312;52.434;13.206;2023-07-20T12:41:22;1.05;;;0.30;;
20306;SDS011;10312;52.434;13.206;2023-07-20T12:43:49;0.30;;;0.20;;
20306;SDS011;10312;52.434;13.206;2023-07-20T12:46:16;1.92;;;0.38;;
20306;SDS011;10312;52.434;13.206;2023-07-20T12:48:43;1.98;;;0.30;;
20306;SDS011;10312;52.434;13.206;2023-07-20T12:51:14;0.20;;;0.20;;
20306;SDS011;10312;52.434;13.206;2023-07-20T12:53:40;2.38;;;0.30;;
20306;SDS011;10312;52.434;13.206;2023-07-20T12:56:07;0.70;;;0.30;;
20306;SDS011;10312;52.434;13.206;2023-07-20T12:58:37;1.05;;;0.40;;
20306;SDS011;10312;52.434;13.206;2023-07-20T13:01:04;0.40;;;0.20;;
20306;SDS011;10312;52.434;13.206;2023-07-20T13:03:31;0.95;;;0.35;;
20306;SDS011;10312;52.434;13.206;2023-07-20T13:05:59;0.40;;;0.30;;
20306;SDS011;10312;52.434;13.206;2023-07-20T13:08:28;1.48;;;0.25;;
20306;SDS011;10312;52.434;13.206;2023-07-20T13:10:55;0.35;;;0.20;;
20306;SDS011;10312;52.434;13.206;2023-07-20T13:13:22;1.95;;;0.43;;
20306;SDS011;10312;52.434;13.206;2023-07-20T13:15:49;1.52;;;0.20;;
20306;SDS011;10312;52.434;13.206;2023-07-20T13:18:16;2.30;;;0.22;;
20306;SDS011;10312;52.434;13.206;2023-07-20T13:20:45;0.40;;;0.20;;
20306;SDS011;10312;52.434;13.206;2023-07-20T13:23:12;0.40;;;0.20;;
20306;SDS011;10312;52.434;13.206;2023-07-20T13:25:38;0.32;;;0.20;;
20306;SDS011;10312;52.434;13.206;2023-07-20T13:28:06;3.60;;;0.40;;
20306;SDS011;10312;52.434;13.206;2023-07-20T13:30:33;0.50;;;0.20;;
20306;SDS011;10312;52.434;13.206;2023-07-20T13:32:59;0.52;;;0.20;;
20306;SDS011;10312;52.434;13.206;2023-07-20T13:35:32;0.98;;;0.40;;
20306;SDS011;10312;52.434;13.206;2023-07-20T13:38:02;0.70;;;0.35;;
20306;SDS011;10312;52.434;13.206;2023-07-20T13:40:29;1.15;;;0.30;;
20306;SDS011;10312;52.434;13.206;2023-07-20T13:42:56;0.80;;;0.30;;
20306;SDS011;10312;52.434;13.206;2023-07-20T13:45:23;0.98;;;0.40;;
20306;SDS011;10312;52.434;13.206;2023-07-20T13:47:50;0.50;;;0.30;;
20306;SDS011;10312;52.434;13.206;2023-07-20T13:50:18;0.30;;;0.20;;
20306;SDS011;10312;52.434;13.206;2023-07-20T13:52:48;1.95;;;0.40;;
20306;SDS011;10312;52.434;13.206;2023-07-20T13:55:15;0.50;;;0.30;;
20306;SDS011;10312;52.434;13.206;2023-07-20T13:58:02;0.50;;;0.30;;
20306;SDS011;10312;52.434;13.206;2023-07-20T14:00:29;0.52;;;0.20;;
20306;SDS011;10312;52.434;13.206;2023-07-20T14:03:00;0.65;;;0.43;;
20306;SDS011;10312;52.434;13.206;2023-07-20T14:05:30;1.00;;;0.75;;
20306;SDS011;10312;52.434;13.206;2023-07-20T14:08:00;1.55;;;0.50;;
20306;SDS011;10312;52.434;13.206;2023-07-20T14:10:27;0.80;;;0.38;;
20306;SDS011;10312;52.434;13.206;2023-07-20T14:12:54;0.50;;;0.30;;
20306;SDS011;10312;52.434;13.206;2023-07-20T14:15:20;0.20;;;0.10;;
20306;SDS011;10312;52.434;13.206;2023-07-20T14:17:48;0.60;;;0.30;;
20306;SDS011;10312;52.434;13.206;2023-07-20T14:20:14;0.90;;;0.40;;
20306;SDS011;10312;52.434;13.206;2023-07-20T14:22:45;1.08;;;0.35;;
20306;SDS011;10312;52.434;13.206;2023-07-20T14:25:17;2.25;;;0.30;;
20306;SDS011;10312;52.434;13.206;2023-07-20T14:27:45;1.60;;;0.40;;
20306;SDS011;10312;52.434;13.206;2023-07-20T14:30:12;0.60;;;0.20;;
20306;SDS011;10312;52.434;13.206;2023-07-20T14:32:40;0.40;;;0.20;;
20306;SDS011;10312;52.434;13.206;2023-07-20T14:35:07;0.93;;;0.30;;
20306;SDS011;10312;52.434;13.206;2023-07-20T14:37:36;0.43;;;0.25;;
20306;SDS011;10312;52.434;13.206;2023-07-20T14:40:03;0.68;;;0.30;;
20306;SDS011;10312;52.434;13.206;2023-07-20T14:42:34;8.93;;;0.40;;
20306;SDS011;10312;52.434;13.206;2023-07-20T14:45:01;1.30;;;0.30;;
20306;SDS011;10312;52.434;13.206;2023-07-20T14:47:29;0.30;;;0.20;;
20306;SDS011;10312;52.434;13.206;2023-07-20T14:50:01;0.80;;;0.30;;
20306;SDS011;10312;52.434;13.206;2023-07-20T14:52:29;0.90;;;0.30;;
20306;SDS011;10312;52.434;13.206;2023-07-20T14:54:56;1.10;;;0.22;;
20306;SDS011;10312;52.434;13.206;2023-07-20T14:57:23;0.43;;;0.30;;
20306;SDS011;10312;52.434;13.206;2023-07-20T14:59:50;0.80;;;0.20;;